Terminal Aerodrome Forecast
Issued by NWS El Paso, TX

Current Version | Previous Version | Text Only | Print | Product List | Glossary On
Versions: 1 2 3 4 5 6 7 8 9 10 11 12 13 14 15 16 17
000
FTUS44 KEPZ 010544
TAFELP
TAF
KELP 010544Z 0106/0206 12007KT P6SM FEW080 FEW250
     FM011800 16008KT P6SM FEW080 FEW250
     FM020300 23007KT P6SM FEW080 FEW250=

USA.gov is the U.S. government's official web portal to all federal, state and local government web resources and services.